createdAt,value
2023-05-02T00:01:49.607Z,89958.09
2023-05-02T00:04:16.639Z,89965.13
2023-05-02T00:06:43.594Z,89961.63
2023-05-02T00:09:10.653Z,89960.88
2023-05-02T00:11:37.549Z,89955.41
2023-05-02T00:14:04.491Z,89966.81
2023-05-02T00:16:33.626Z,89968.28
2023-05-02T00:19:00.555Z,89969.50
2023-05-02T00:21:27.369Z,89975.19
2023-05-02T00:23:54.230Z,89968.84
2023-05-02T00:26:21.180Z,89975.78
2023-05-02T00:28:47.984Z,89975.72
2023-05-02T00:31:15.059Z,89970.25
2023-05-02T00:33:41.961Z,89971.03
2023-05-02T00:36:19.506Z,89969.81
2023-05-02T00:38:46.549Z,89966.47
2023-05-02T00:41:13.395Z,89965.47
2023-05-02T00:43:40.328Z,89964.59
2023-05-02T00:46:07.452Z,89972.66
2023-05-02T00:48:35.569Z,89971.50
2023-05-02T00:51:04.670Z,89980.53
2023-05-02T00:53:32.123Z,89974.00
2023-05-02T00:55:59.691Z,89968.38
2023-05-02T00:58:27.864Z,89976.41
2023-05-02T01:01:07.525Z,89974.03
2023-05-02T01:04:04.862Z,89976.44
2023-05-02T01:06:44.258Z,89974.59
2023-05-02T01:09:23.130Z,89980.50
2023-05-02T01:12:04.440Z,89989.00
2023-05-02T01:14:42.917Z,89986.03
2023-05-02T01:17:14.177Z,89996.88
2023-05-02T01:19:47.730Z,89989.28
2023-05-02T01:22:16.544Z,89991.75
2023-05-02T01:24:48.907Z,89986.72
2023-05-02T01:27:43.731Z,89987.56
2023-05-02T01:30:12.722Z,89994.50
2023-05-02T01:32:41.861Z,89994.34
2023-05-02T01:35:10.926Z,89991.03
2023-05-02T01:37:40.207Z,89995.22
2023-05-02T01:40:09.714Z,89989.84
2023-05-02T01:42:38.326Z,89994.41
2023-05-02T01:45:08.038Z,89995.97
2023-05-02T01:47:36.719Z,89996.22
2023-05-02T01:50:09.152Z,89999.22
2023-05-02T01:52:37.036Z,89998.78
2023-05-02T01:55:06.348Z,89999.25
2023-05-02T01:57:33.496Z,90003.56
2023-05-02T02:00:02.156Z,90003.94
2023-05-02T02:02:30.690Z,90009.00
2023-05-02T02:04:59.977Z,90008.19
2023-05-02T02:07:26.920Z,90014.41
2023-05-02T02:09:53.876Z,90017.34
2023-05-02T02:12:28.567Z,90011.56
2023-05-02T02:15:13.790Z,90018.63
2023-05-02T02:17:44.754Z,90023.16
2023-05-02T02:20:13.490Z,90017.69
2023-05-02T02:22:42.933Z,90015.88
2023-05-02T02:25:17.724Z,90014.09
2023-05-02T02:27:44.647Z,90015.59
2023-05-02T02:30:11.945Z,90010.94
2023-05-02T02:32:39.146Z,90018.44
2023-05-02T02:35:06.638Z,90015.38
2023-05-02T02:37:37.860Z,90030.25
2023-05-02T02:40:08.615Z,90025.16
2023-05-02T02:43:12.685Z,90019.69
2023-05-02T02:45:46.415Z,90029.84
2023-05-02T02:48:47.973Z,90028.88
2023-05-02T02:51:26.105Z,90033.09
2023-05-02T02:54:19.115Z,90033.44
2023-05-02T02:57:02.063Z,90035.00
2023-05-02T02:59:38.700Z,90033.31
2023-05-02T03:02:08.903Z,90037.53
2023-05-02T03:04:39.686Z,90048.63
2023-05-02T03:07:06.582Z,90052.00
2023-05-02T03:09:43.933Z,90057.16
2023-05-02T03:12:11.460Z,90055.78
2023-05-02T03:14:39.358Z,90058.44
2023-05-02T03:17:07.113Z,90052.31
2023-05-02T03:19:34.442Z,90053.03
2023-05-02T03:22:01.186Z,90057.47
2023-05-02T03:24:28.079Z,90065.94
2023-05-02T03:26:56.228Z,90061.59
2023-05-02T03:29:23.213Z,90064.72
2023-05-02T03:31:50.096Z,90066.72
2023-05-02T03:34:16.926Z,90068.25
2023-05-02T03:36:43.795Z,90084.09
2023-05-02T03:39:10.667Z,90070.25
2023-05-02T03:41:37.418Z,90081.16
2023-05-02T03:44:04.550Z,90076.56
2023-05-02T03:46:31.515Z,90079.75
2023-05-02T03:48:58.653Z,90088.72
2023-05-02T03:51:25.443Z,90085.03
2023-05-02T03:53:52.430Z,90090.75
2023-05-02T03:56:19.880Z,90105.81
2023-05-02T03:58:47.046Z,90097.66
2023-05-02T04:01:15.034Z,90093.75
2023-05-02T04:03:42.341Z,90091.75
2023-05-02T04:06:09.251Z,90106.75
2023-05-02T04:08:36.125Z,90101.53
2023-05-02T04:11:02.934Z,90100.13
2023-05-02T04:13:29.806Z,90099.09
2023-05-02T04:15:56.915Z,90102.34
2023-05-02T04:18:23.688Z,90108.03
2023-05-02T04:20:50.789Z,90115.88
2023-05-02T04:23:17.704Z,90111.50
2023-05-02T04:25:54.685Z,90106.34
2023-05-02T04:28:23.061Z,90108.44
2023-05-02T04:30:50.596Z,90106.97
2023-05-02T04:33:18.289Z,90112.72
2023-05-02T04:35:46.253Z,90112.94
2023-05-02T04:38:13.090Z,90113.97
2023-05-02T04:40:40.265Z,90115.72
2023-05-02T04:43:07.531Z,90108.41
2023-05-02T04:45:37.546Z,90119.59
2023-05-02T04:48:05.067Z,90124.16
2023-05-02T04:50:32.097Z,90121.91
2023-05-02T04:52:58.912Z,90118.34
2023-05-02T04:55:25.680Z,90126.59
2023-05-02T04:57:52.581Z,90122.09
2023-05-02T05:00:19.552Z,90127.88
2023-05-02T05:02:46.374Z,90124.03
2023-05-02T05:05:13.413Z,90125.81
2023-05-02T05:07:40.222Z,90133.63
2023-05-02T05:10:07.647Z,90143.59
2023-05-02T05:12:34.545Z,90132.78
2023-05-02T05:15:01.404Z,90133.41
2023-05-02T05:17:28.297Z,90141.97
2023-05-02T05:19:55.208Z,90136.94
2023-05-02T05:22:22.047Z,90151.03
2023-05-02T05:24:54.955Z,90142.13
2023-05-02T05:27:22.182Z,90147.44
2023-05-02T05:29:49.022Z,90148.00
2023-05-02T05:32:15.897Z,90152.59
2023-05-02T05:34:42.726Z,90151.84
2023-05-02T05:37:09.576Z,90157.16
2023-05-02T05:39:36.615Z,90158.34
2023-05-02T05:42:03.414Z,90151.28
2023-05-02T05:44:30.140Z,90157.28
2023-05-02T05:46:56.995Z,90161.22
2023-05-02T05:49:23.955Z,90159.94
2023-05-02T05:51:50.711Z,90158.63
2023-05-02T05:54:17.926Z,90152.09
2023-05-02T05:56:45.312Z,90152.53
2023-05-02T05:59:12.460Z,90153.81
2023-05-02T06:01:39.530Z,90156.84
2023-05-02T06:04:06.949Z,90154.53
2023-05-02T06:06:34.431Z,90148.47
2023-05-02T06:09:01.848Z,90152.47
2023-05-02T06:11:29.224Z,90161.47
2023-05-02T06:13:56.169Z,90146.78
2023-05-02T06:16:23.052Z,90157.19
2023-05-02T06:18:51.775Z,90150.53
2023-05-02T06:21:18.743Z,90154.75
2023-05-02T06:23:45.656Z,90153.47
2023-05-02T06:26:12.483Z,90149.28
2023-05-02T06:28:39.267Z,90166.84
2023-05-02T06:31:06.491Z,90155.78
2023-05-02T06:33:34.744Z,90159.66
2023-05-02T06:36:02.204Z,90159.75
2023-05-02T06:38:29.790Z,90164.19
2023-05-02T06:40:56.670Z,90169.34
2023-05-02T06:43:23.580Z,90167.13
2023-05-02T06:45:54.171Z,90171.44
2023-05-02T06:48:21.178Z,90170.69
2023-05-02T06:50:48.866Z,90172.09
2023-05-02T06:53:15.902Z,90166.31
2023-05-02T06:55:42.993Z,90160.50
2023-05-02T06:58:10.001Z,90159.44
2023-05-02T07:00:37.021Z,90164.50
2023-05-02T07:03:04.229Z,90161.69
2023-05-02T07:05:31.147Z,90166.75
2023-05-02T07:07:58.098Z,90164.44
2023-05-02T07:10:25.080Z,90170.81
2023-05-02T07:12:51.981Z,90168.28
2023-05-02T07:15:19.133Z,90168.78
2023-05-02T07:17:46.043Z,90163.63
2023-05-02T07:20:12.916Z,90162.44
2023-05-02T07:22:39.901Z,90160.63
2023-05-02T07:25:06.897Z,90160.25
2023-05-02T07:27:33.797Z,90162.41
2023-05-02T07:30:01.057Z,90161.06
2023-05-02T07:32:28.290Z,90163.78
2023-05-02T07:34:58.098Z,90157.91
2023-05-02T07:37:24.893Z,90161.59
2023-05-02T07:39:51.843Z,90150.56
2023-05-02T07:42:18.771Z,90161.84
2023-05-02T07:44:45.744Z,90169.81
2023-05-02T07:47:12.533Z,90160.53
2023-05-02T07:49:39.413Z,90151.09
2023-05-02T07:52:06.233Z,90157.94
2023-05-02T07:54:33.023Z,90159.25
2023-05-02T07:56:59.845Z,90150.56
2023-05-02T07:59:26.746Z,90157.44
2023-05-02T08:01:53.617Z,90157.78
2023-05-02T08:04:20.617Z,90152.00
2023-05-02T08:06:47.649Z,90157.06
2023-05-02T08:09:14.506Z,90163.28
2023-05-02T08:11:41.355Z,90151.88
2023-05-02T08:14:08.292Z,90155.66
2023-05-02T08:16:35.438Z,90155.66
2023-05-02T08:19:02.364Z,90161.38
2023-05-02T08:21:29.417Z,90157.78
2023-05-02T08:23:58.836Z,90151.53
2023-05-02T08:26:26.266Z,90153.72
2023-05-02T08:28:53.751Z,90159.28
2023-05-02T08:31:21.247Z,90159.84
2023-05-02T08:33:48.337Z,90158.16
2023-05-02T08:36:17.465Z,90157.81
2023-05-02T08:38:45.780Z,90148.13
2023-05-02T08:41:19.135Z,90152.59
2023-05-02T08:43:47.070Z,90151.06
2023-05-02T08:46:15.542Z,90148.19
2023-05-02T08:48:44.872Z,90144.31
2023-05-02T08:51:13.714Z,90142.88
2023-05-02T08:53:41.590Z,90138.66
2023-05-02T08:56:09.988Z,90145.09
2023-05-02T08:58:38.637Z,90141.41
2023-05-02T09:01:20.122Z,90141.47
2023-05-02T09:03:48.408Z,90130.19
2023-05-02T09:06:21.396Z,90133.47
2023-05-02T09:08:51.882Z,90148.78
2023-05-02T09:11:19.615Z,90131.75
2023-05-02T09:13:48.719Z,90124.66
2023-05-02T09:16:20.922Z,90134.56
2023-05-02T09:18:49.767Z,90130.16
2023-05-02T09:21:20.648Z,90120.63
2023-05-02T09:23:53.222Z,90126.72
2023-05-02T09:26:25.767Z,90116.84
2023-05-02T09:28:55.002Z,90108.53
2023-05-02T09:31:49.884Z,90117.59
2023-05-02T09:34:16.225Z,90111.44
2023-05-02T09:36:47.752Z,90116.22
2023-05-02T09:39:16.907Z,90109.78
2023-05-02T09:41:45.899Z,90117.13
2023-05-02T09:44:19.722Z,90112.09
2023-05-02T09:46:49.197Z,90109.84
2023-05-02T09:49:16.977Z,90105.44
2023-05-02T09:51:44.075Z,90101.25
2023-05-02T09:54:11.079Z,90109.94
2023-05-02T09:56:54.416Z,90111.47
2023-05-02T09:59:21.307Z,90114.19
2023-05-02T10:01:56.093Z,90112.94
2023-05-02T10:04:23.251Z,90105.13
2023-05-02T10:06:52.208Z,90113.19
2023-05-02T10:09:21.723Z,90110.34
2023-05-02T10:11:53.859Z,90116.94
2023-05-02T10:14:23.003Z,90116.44
2023-05-02T10:17:08.848Z,90115.00
2023-05-02T10:19:38.460Z,90108.91
2023-05-02T10:22:06.511Z,90104.97
2023-05-02T10:24:33.467Z,90105.00
2023-05-02T10:27:00.926Z,90108.88
2023-05-02T10:29:31.947Z,90108.66
2023-05-02T10:32:02.567Z,90100.84
2023-05-02T10:34:32.932Z,90105.19
2023-05-02T10:36:59.824Z,90101.06
2023-05-02T10:39:28.346Z,90100.13
2023-05-02T10:41:58.087Z,90090.84
2023-05-02T10:44:38.008Z,90100.34
2023-05-02T10:47:20.819Z,90090.81
2023-05-02T10:50:01.826Z,90088.53
2023-05-02T10:52:31.554Z,90098.19
2023-05-02T10:55:17.562Z,90083.88
2023-05-02T10:57:59.455Z,90082.78
2023-05-02T11:00:34.488Z,90089.50
2023-05-02T11:03:02.598Z,90087.63
2023-05-02T11:05:29.973Z,90080.03
2023-05-02T11:08:15.447Z,90081.78
2023-05-02T11:10:43.798Z,90084.22
2023-05-02T11:13:10.704Z,90079.56
2023-05-02T11:15:40.591Z,90081.31
2023-05-02T11:18:12.669Z,90078.44
2023-05-02T11:20:44.223Z,90073.50
2023-05-02T11:23:17.145Z,90078.13
2023-05-02T11:25:47.630Z,90082.00
2023-05-02T11:28:45.447Z,90073.69
2023-05-02T11:31:27.528Z,90074.69
2023-05-02T11:34:02.204Z,90082.94
2023-05-02T11:36:33.800Z,90072.97
2023-05-02T11:39:04.804Z,90064.38
2023-05-02T11:41:50.319Z,90069.31
2023-05-02T11:44:17.208Z,90065.38
2023-05-02T11:46:45.047Z,90069.31
2023-05-02T11:49:15.282Z,90060.41
2023-05-02T11:51:42.376Z,90064.13
2023-05-02T11:54:09.287Z,90062.94
2023-05-02T11:56:36.286Z,90067.38
2023-05-02T11:59:04.287Z,90057.81
2023-05-02T12:01:31.098Z,90053.78
2023-05-02T12:04:08.718Z,90049.34
2023-05-02T12:06:38.019Z,90051.06
2023-05-02T12:09:08.746Z,90052.44
2023-05-02T12:11:36.192Z,90048.75
2023-05-02T12:14:04.404Z,90048.78
2023-05-02T12:16:31.939Z,90044.44
2023-05-02T12:18:59.190Z,90051.47
2023-05-02T12:21:28.602Z,90046.09
2023-05-02T12:23:56.587Z,90043.66
2023-05-02T12:26:26.672Z,90036.06
2023-05-02T12:28:54.910Z,90035.75
2023-05-02T12:31:23.150Z,90029.63
2023-05-02T12:33:50.390Z,90033.75
2023-05-02T12:36:17.734Z,90026.06
2023-05-02T12:38:58.983Z,90028.78
2023-05-02T12:41:37.513Z,90038.31
2023-05-02T12:44:05.646Z,90024.88
2023-05-02T12:46:35.158Z,90024.16
2023-05-02T12:49:07.445Z,90018.50
2023-05-02T12:51:34.629Z,90025.41
2023-05-02T12:54:02.441Z,90021.25
2023-05-02T12:56:29.562Z,90017.59
2023-05-02T12:58:56.434Z,90009.28
2023-05-02T13:01:23.246Z,90019.03
2023-05-02T13:03:51.988Z,90010.50
2023-05-02T13:06:18.890Z,90002.66
2023-05-02T13:08:45.728Z,90004.16
2023-05-02T13:11:13.014Z,89998.22
2023-05-02T13:13:46.328Z,89996.38
2023-05-02T13:16:13.314Z,90001.22
2023-05-02T13:18:40.252Z,90009.75
2023-05-02T13:21:07.195Z,90012.72
2023-05-02T13:23:34.125Z,90011.00
2023-05-02T13:26:00.970Z,90006.59
2023-05-02T13:28:27.854Z,90001.63
2023-05-02T13:30:54.908Z,90004.53
2023-05-02T13:33:21.942Z,90009.59
2023-05-02T13:35:48.808Z,90004.59
2023-05-02T13:38:15.704Z,90010.25
2023-05-02T13:40:42.706Z,90007.78
2023-05-02T13:43:09.593Z,90003.75
2023-05-02T13:45:36.646Z,90005.09
2023-05-02T13:48:03.611Z,89998.28
2023-05-02T13:50:30.492Z,89992.41
2023-05-02T13:52:57.407Z,89992.59
2023-05-02T13:55:24.213Z,89995.66
2023-05-02T13:57:50.954Z,89997.56
2023-05-02T14:00:18.078Z,89997.19
2023-05-02T14:02:44.870Z,89994.66
2023-05-02T14:05:11.762Z,89991.88
2023-05-02T14:07:38.624Z,89990.41
2023-05-02T14:10:06.097Z,89987.44
2023-05-02T14:12:32.906Z,89989.63
2023-05-02T14:14:59.967Z,89991.03
2023-05-02T14:17:26.837Z,89989.69
2023-05-02T14:19:53.719Z,89983.81
2023-05-02T14:22:20.607Z,89974.16
2023-05-02T14:24:47.381Z,89978.81
2023-05-02T14:27:14.142Z,89968.25
2023-05-02T14:29:41.219Z,89977.41
2023-05-02T14:32:08.069Z,89982.59
2023-05-02T14:34:34.901Z,89977.97
2023-05-02T14:37:01.876Z,89985.94
2023-05-02T14:39:28.746Z,89976.78
2023-05-02T14:41:55.541Z,89982.72
2023-05-02T14:44:22.373Z,89975.91
2023-05-02T14:46:49.231Z,89976.66
2023-05-02T14:49:16.146Z,89973.41
2023-05-02T14:51:43.089Z,89975.13
2023-05-02T14:54:09.959Z,89983.34
2023-05-02T14:56:36.849Z,89976.00
2023-05-02T14:59:03.796Z,89978.38
2023-05-02T15:01:30.820Z,89973.13
2023-05-02T15:04:06.642Z,89980.47
2023-05-02T15:06:34.932Z,89979.75
2023-05-02T15:09:02.182Z,89982.28
2023-05-02T15:11:28.990Z,89976.50
2023-05-02T15:13:57.494Z,89981.06
2023-05-02T15:16:26.092Z,89985.50
2023-05-02T15:18:52.921Z,89979.66
2023-05-02T15:21:19.933Z,89976.59
2023-05-02T15:23:46.798Z,89979.00
2023-05-02T15:26:13.762Z,89983.00
2023-05-02T15:28:43.124Z,89977.84
2023-05-02T15:31:09.986Z,89983.09
2023-05-02T15:33:38.158Z,89971.94
2023-05-02T15:36:05.218Z,89978.78
2023-05-02T15:38:32.214Z,89979.25
2023-05-02T15:41:03.585Z,89979.19
2023-05-02T15:43:30.780Z,89979.72
2023-05-02T15:45:59.501Z,89977.34
2023-05-02T15:48:33.470Z,89975.59
2023-05-02T15:51:00.730Z,89987.09
2023-05-02T15:53:28.570Z,89983.00
2023-05-02T15:55:55.495Z,89989.72
2023-05-02T15:58:22.395Z,89980.75
2023-05-02T16:00:49.256Z,89986.81
2023-05-02T16:03:16.213Z,89991.03
2023-05-02T16:05:43.149Z,89994.47
2023-05-02T16:08:09.921Z,89999.16
2023-05-02T16:10:37.361Z,89996.75
2023-05-02T16:13:04.180Z,89993.38
2023-05-02T16:15:33.864Z,89996.81
2023-05-02T16:18:00.878Z,89991.16
2023-05-02T16:20:27.833Z,89997.50
2023-05-02T16:22:57.133Z,89999.22
2023-05-02T16:25:23.987Z,89994.16
2023-05-02T16:27:50.861Z,90005.22
2023-05-02T16:30:17.915Z,90002.50
2023-05-02T16:32:45.072Z,89998.69
2023-05-02T16:35:12.132Z,90008.44
2023-05-02T16:37:40.825Z,90014.09
2023-05-02T16:40:11.316Z,90017.53
2023-05-02T16:42:38.667Z,90021.28
2023-05-02T16:45:06.137Z,90025.03
2023-05-02T16:47:36.039Z,90018.00
2023-05-02T16:50:03.596Z,90028.56
2023-05-02T16:52:30.641Z,90031.25
2023-05-02T16:54:57.532Z,90032.56
2023-05-02T16:57:24.420Z,90031.66
2023-05-02T16:59:52.839Z,90032.38
2023-05-02T17:02:21.099Z,90036.09
2023-05-02T17:04:49.411Z,90030.50
2023-05-02T17:07:17.047Z,90045.63
2023-05-02T17:09:44.441Z,90043.94
2023-05-02T17:12:12.471Z,90042.69
2023-05-02T17:14:40.240Z,90051.50
2023-05-02T17:17:07.520Z,90050.28
2023-05-02T17:19:34.534Z,90052.50
2023-05-02T17:22:02.098Z,90060.31
2023-05-02T17:24:29.383Z,90060.78
2023-05-02T17:26:56.390Z,90060.53
2023-05-02T17:29:23.287Z,90062.00
2023-05-02T17:31:50.515Z,90066.41
2023-05-02T17:34:17.645Z,90059.81
2023-05-02T17:36:47.381Z,90068.13
2023-05-02T17:39:14.465Z,90070.06
2023-05-02T17:41:41.362Z,90086.16
2023-05-02T17:44:08.182Z,90086.16
2023-05-02T17:46:35.143Z,90095.91
2023-05-02T17:49:02.045Z,90103.44
2023-05-02T17:51:28.970Z,90107.50
2023-05-02T17:53:55.889Z,90125.50
2023-05-02T17:56:22.714Z,90116.69
2023-05-02T17:58:49.509Z,90126.19
2023-05-02T18:01:16.539Z,90124.38
2023-05-02T18:03:43.504Z,90132.09
2023-05-02T18:06:16.410Z,90140.25
2023-05-02T18:08:45.433Z,90139.53
2023-05-02T18:11:17.196Z,90140.78
2023-05-02T18:13:45.013Z,90152.50
2023-05-02T18:16:12.410Z,90148.03
2023-05-02T18:18:39.480Z,90150.78
2023-05-02T18:21:06.481Z,90160.78
2023-05-02T18:23:33.976Z,90163.63
2023-05-02T18:26:04.104Z,90166.56
2023-05-02T18:28:30.965Z,90169.72
2023-05-02T18:30:57.897Z,90176.81
2023-05-02T18:33:24.859Z,90180.91
2023-05-02T18:35:51.870Z,90169.94
2023-05-02T18:38:18.722Z,90168.34
2023-05-02T18:40:45.822Z,90167.31
2023-05-02T18:43:12.959Z,90183.66
2023-05-02T18:45:40.410Z,90178.81
2023-05-02T18:48:07.594Z,90188.72
2023-05-02T18:50:34.505Z,90188.44
2023-05-02T18:53:01.380Z,90182.44
2023-05-02T18:55:28.247Z,90184.16
2023-05-02T18:57:55.210Z,90193.66
2023-05-02T19:00:22.281Z,90190.97
2023-05-02T19:02:52.166Z,90189.03
2023-05-02T19:05:19.315Z,90190.97
2023-05-02T19:07:46.284Z,90192.44
2023-05-02T19:10:13.266Z,90191.72
2023-05-02T19:12:42.594Z,90185.44
2023-05-02T19:15:12.085Z,90193.66
2023-05-02T19:17:40.828Z,90193.66
2023-05-02T19:20:08.707Z,90191.72
2023-05-02T19:22:35.881Z,90194.34
2023-05-02T19:25:05.499Z,90194.75
2023-05-02T19:27:32.567Z,90187.84
2023-05-02T19:29:59.406Z,90186.31
2023-05-02T19:32:26.533Z,90192.59
2023-05-02T19:34:53.506Z,90186.19
2023-05-02T19:37:20.483Z,90182.66
2023-05-02T19:39:47.326Z,90178.78
2023-05-02T19:42:14.305Z,90170.56
2023-05-02T19:44:41.357Z,90173.91
2023-05-02T19:47:08.310Z,90181.50
2023-05-02T19:49:35.310Z,90187.41
2023-05-02T19:52:02.170Z,90185.25
2023-05-02T19:54:32.324Z,90183.00
2023-05-02T19:56:59.766Z,90185.00
2023-05-02T19:59:26.690Z,90187.41
2023-05-02T20:01:53.480Z,90185.25
2023-05-02T20:04:23.250Z,90189.13
2023-05-02T20:06:50.178Z,90178.69
2023-05-02T20:09:20.310Z,90183.38
2023-05-02T20:11:47.196Z,90184.63
2023-05-02T20:14:14.013Z,90184.72
2023-05-02T20:16:40.887Z,90182.31
2023-05-02T20:19:07.872Z,90183.88
2023-05-02T20:21:34.755Z,90188.66
2023-05-02T20:24:01.563Z,90194.56
2023-05-02T20:26:31.081Z,90193.41
2023-05-02T20:28:57.901Z,90196.06
2023-05-02T20:31:27.665Z,90194.34
2023-05-02T20:33:54.746Z,90194.59
2023-05-02T20:36:21.623Z,90195.38
2023-05-02T20:38:48.369Z,90199.50
2023-05-02T20:41:15.252Z,90197.31
2023-05-02T20:43:42.153Z,90188.41
2023-05-02T20:46:10.297Z,90202.63
2023-05-02T20:48:37.390Z,90193.16
2023-05-02T20:51:04.422Z,90191.78
2023-05-02T20:53:31.270Z,90188.63
2023-05-02T20:55:58.196Z,90192.31
2023-05-02T20:58:24.976Z,90193.03
2023-05-02T21:00:51.781Z,90185.97
2023-05-02T21:03:19.267Z,90193.19
2023-05-02T21:05:50.777Z,90185.06
2023-05-02T21:08:17.745Z,90190.69
2023-05-02T21:10:46.290Z,90188.94
2023-05-02T21:13:13.433Z,90185.69
2023-05-02T21:15:40.944Z,90190.84
2023-05-02T21:18:08.091Z,90193.69
2023-05-02T21:20:35.016Z,90191.34
2023-05-02T21:23:02.687Z,90180.56
2023-05-02T21:25:29.737Z,90187.22
2023-05-02T21:27:56.599Z,90187.69
2023-05-02T21:30:23.589Z,90187.34
2023-05-02T21:32:50.427Z,90196.81
2023-05-02T21:35:17.307Z,90196.28
2023-05-02T21:37:44.115Z,90193.56
2023-05-02T21:40:11.640Z,90195.94
2023-05-02T21:42:38.437Z,90191.97
2023-05-02T21:45:06.190Z,90195.03
2023-05-02T21:47:33.208Z,90189.47
2023-05-02T21:50:00.242Z,90181.59
2023-05-02T21:52:27.380Z,90180.84
2023-05-02T21:54:54.338Z,90180.84
2023-05-02T21:57:21.149Z,90174.97
2023-05-02T21:59:47.885Z,90183.50
2023-05-02T22:02:14.812Z,90179.81
2023-05-02T22:04:41.635Z,90188.94
2023-05-02T22:07:08.553Z,90186.13
2023-05-02T22:09:35.444Z,90191.72
2023-05-02T22:12:02.225Z,90188.41
2023-05-02T22:14:37.554Z,90189.53
2023-05-02T22:17:10.927Z,90190.91
2023-05-02T22:19:37.823Z,90187.72
2023-05-02T22:22:05.241Z,90182.63
2023-05-02T22:24:32.184Z,90185.06
2023-05-02T22:26:59.006Z,90185.03
2023-05-02T22:29:25.823Z,90181.06
2023-05-02T22:31:52.832Z,90178.28
2023-05-02T22:34:19.715Z,90188.00
2023-05-02T22:36:46.576Z,90183.50
2023-05-02T22:39:13.535Z,90176.75
2023-05-02T22:41:40.346Z,90180.31
2023-05-02T22:44:07.160Z,90187.16
2023-05-02T22:46:34.208Z,90186.63
2023-05-02T22:49:00.995Z,90183.06
2023-05-02T22:51:27.930Z,90183.28
2023-05-02T22:53:57.325Z,90176.94
2023-05-02T22:56:24.393Z,90170.75
2023-05-02T22:58:51.236Z,90170.53
2023-05-02T23:01:18.220Z,90177.78
2023-05-02T23:03:45.260Z,90177.75
2023-05-02T23:06:12.210Z,90173.06
2023-05-02T23:08:39.112Z,90178.03
2023-05-02T23:11:06.053Z,90175.91
2023-05-02T23:13:32.825Z,90174.66
2023-05-02T23:15:59.753Z,90177.38
2023-05-02T23:18:26.584Z,90186.59
2023-05-02T23:20:53.441Z,90178.13
2023-05-02T23:23:20.281Z,90181.66
2023-05-02T23:25:47.125Z,90188.56
2023-05-02T23:28:13.946Z,90186.97
2023-05-02T23:30:41.018Z,90187.81
2023-05-02T23:33:08.005Z,90187.91
2023-05-02T23:35:35.850Z,90190.56
2023-05-02T23:38:06.669Z,90188.63
2023-05-02T23:40:34.551Z,90189.97
2023-05-02T23:43:01.631Z,90195.69
2023-05-02T23:45:28.636Z,90183.34
2023-05-02T23:47:55.470Z,90199.91
2023-05-02T23:50:22.300Z,90193.22
2023-05-02T23:52:49.097Z,90189.63
2023-05-02T23:55:16.008Z,90179.88
2023-05-02T23:57:42.852Z,90186.63
